createdAt,value
2022-10-05T00:01:17.298Z,8.15
2022-10-05T00:03:45.182Z,8.24
2022-10-05T00:06:14.060Z,8.16
2022-10-05T00:08:44.346Z,8.28
2022-10-05T00:11:14.592Z,7.83
2022-10-05T00:13:42.927Z,8.23
2022-10-05T00:16:17.014Z,8.23
2022-10-05T00:18:47.977Z,8.24
2022-10-05T00:21:21.881Z,8.20
2022-10-05T00:23:51.956Z,8.16
2022-10-05T00:26:22.746Z,7.80
2022-10-05T00:28:50.670Z,8.11
2022-10-05T00:31:21.677Z,8.23
2022-10-05T00:33:50.072Z,8.27
2022-10-05T00:36:18.407Z,8.27
2022-10-05T00:38:46.687Z,8.18
2022-10-05T00:41:22.588Z,8.05
2022-10-05T00:44:12.612Z,8.14
2022-10-05T00:46:54.930Z,8.18
2022-10-05T00:49:39.433Z,8.17
2022-10-05T00:52:20.292Z,8.19
2022-10-05T00:54:54.347Z,8.27
2022-10-05T00:57:35.092Z,8.24
2022-10-05T01:00:07.603Z,8.17
2022-10-05T01:02:49.327Z,8.03
2022-10-05T01:05:30.720Z,8.02
2022-10-05T01:08:05.131Z,7.87
2022-10-05T01:10:39.954Z,7.74
2022-10-05T01:13:19.155Z,7.60
2022-10-05T01:15:54.383Z,7.53
2022-10-05T01:18:28.922Z,7.46
2022-10-05T01:21:04.665Z,7.45
2022-10-05T01:24:05.212Z,7.43
2022-10-05T01:26:59.691Z,7.23
2022-10-05T01:29:34.212Z,7.38
2022-10-05T01:32:11.172Z,7.42
2022-10-05T01:34:43.348Z,7.32
2022-10-05T01:37:20.064Z,7.32
2022-10-05T01:39:55.000Z,7.29
2022-10-05T01:42:33.314Z,7.25
2022-10-05T01:45:09.645Z,7.18
2022-10-05T01:47:44.509Z,7.20
2022-10-05T01:50:23.839Z,7.20
2022-10-05T01:53:01.412Z,7.11
2022-10-05T01:55:36.081Z,7.04
2022-10-05T01:58:17.021Z,6.97
2022-10-05T02:00:58.188Z,6.94
2022-10-05T02:03:31.127Z,7.02
2022-10-05T02:06:04.492Z,6.95
2022-10-05T02:08:35.810Z,7.02
2022-10-05T02:11:07.733Z,7.01
2022-10-05T02:13:40.356Z,6.99
2022-10-05T02:16:15.618Z,7.11
2022-10-05T02:18:50.980Z,6.92
2022-10-05T02:21:20.609Z,7.26
2022-10-05T02:23:52.603Z,7.33
2022-10-05T02:26:20.593Z,7.37
2022-10-05T02:28:53.542Z,7.40
2022-10-05T02:31:27.168Z,7.45
2022-10-05T02:34:22.505Z,7.38
2022-10-05T02:36:57.952Z,7.30
2022-10-05T02:39:35.808Z,7.25
2022-10-05T02:42:13.743Z,7.20
2022-10-05T02:44:52.759Z,7.15
2022-10-05T02:47:33.464Z,7.16
2022-10-05T02:50:09.441Z,7.16
2022-10-05T02:52:46.171Z,6.75
2022-10-05T02:55:19.575Z,7.02
2022-10-05T02:57:55.350Z,7.03
2022-10-05T03:00:25.631Z,7.10
2022-10-05T03:03:02.265Z,7.09
2022-10-05T03:05:36.512Z,7.06
2022-10-05T03:08:10.544Z,7.05
2022-10-05T03:10:44.425Z,6.98
2022-10-05T03:13:24.273Z,6.95
2022-10-05T03:16:07.305Z,6.99
2022-10-05T03:18:49.403Z,6.99
2022-10-05T03:21:31.207Z,6.92
2022-10-05T03:24:21.830Z,6.80
2022-10-05T03:27:01.752Z,6.90
2022-10-05T03:29:37.462Z,6.91
2022-10-05T03:32:18.582Z,6.85
2022-10-05T03:34:54.904Z,6.86
2022-10-05T03:37:30.347Z,6.83
2022-10-05T03:40:05.884Z,6.77
2022-10-05T03:42:39.979Z,6.66
2022-10-05T03:45:20.348Z,6.58
2022-10-05T03:48:01.023Z,6.46
2022-10-05T03:50:43.374Z,6.35
2022-10-05T03:53:19.703Z,6.30
2022-10-05T03:55:53.768Z,6.37
2022-10-05T03:58:25.070Z,6.31
2022-10-05T04:00:59.473Z,6.27
2022-10-05T04:03:34.055Z,6.20
2022-10-05T04:06:11.256Z,6.11
2022-10-05T04:08:47.910Z,6.09
2022-10-05T04:11:22.349Z,6.16
2022-10-05T04:13:54.927Z,6.05
2022-10-05T04:16:28.863Z,5.92
2022-10-05T04:19:02.449Z,5.94
2022-10-05T04:21:36.275Z,5.97
2022-10-05T04:24:11.268Z,5.95
2022-10-05T04:26:45.020Z,6.03
2022-10-05T04:29:20.424Z,6.04
2022-10-05T04:31:58.296Z,6.17
2022-10-05T04:34:45.592Z,6.30
2022-10-05T04:37:21.444Z,6.43
2022-10-05T04:40:01.996Z,6.73
2022-10-05T04:42:36.383Z,7.07
2022-10-05T04:45:13.143Z,7.29
2022-10-05T04:48:06.225Z,7.63
2022-10-05T04:50:49.148Z,7.78
2022-10-05T04:53:26.700Z,7.96
2022-10-05T04:56:00.008Z,7.92
2022-10-05T04:58:48.912Z,7.86
2022-10-05T05:01:34.657Z,8.24
2022-10-05T05:04:16.223Z,8.71
2022-10-05T05:06:56.508Z,9.11
2022-10-05T05:09:47.506Z,9.43
2022-10-05T05:12:25.182Z,9.56
2022-10-05T05:15:18.066Z,9.27
2022-10-05T05:18:02.199Z,10.07
2022-10-05T05:20:44.487Z,10.53
2022-10-05T05:23:22.195Z,10.89
2022-10-05T05:26:01.696Z,11.10
2022-10-05T05:28:36.563Z,11.16
2022-10-05T05:31:11.430Z,11.31
2022-10-05T05:33:55.241Z,11.56
2022-10-05T05:36:43.147Z,11.84
2022-10-05T05:39:29.464Z,12.10
2022-10-05T05:42:08.014Z,12.23
2022-10-05T05:44:43.820Z,12.44
2022-10-05T05:47:21.643Z,12.72
2022-10-05T05:50:07.700Z,13.04
2022-10-05T05:52:42.825Z,13.22
2022-10-05T05:55:20.271Z,13.13
2022-10-05T05:57:54.353Z,13.40
2022-10-05T06:00:26.115Z,13.52
2022-10-05T06:02:58.426Z,13.65
2022-10-05T06:05:32.134Z,13.33
2022-10-05T06:08:04.290Z,13.18
2022-10-05T06:10:41.429Z,13.63
2022-10-05T06:13:16.650Z,12.85
2022-10-05T06:15:49.234Z,12.69
2022-10-05T06:18:20.582Z,12.81
2022-10-05T06:20:55.996Z,12.99
2022-10-05T06:23:29.027Z,12.80
2022-10-05T06:26:19.063Z,13.26
2022-10-05T06:28:53.658Z,13.33
2022-10-05T06:31:36.711Z,13.55
2022-10-05T06:34:18.411Z,13.86
2022-10-05T06:36:51.998Z,14.07
2022-10-05T06:39:37.847Z,14.38
2022-10-05T06:42:22.119Z,14.33
2022-10-05T06:45:01.541Z,13.94
2022-10-05T06:47:38.773Z,14.36
2022-10-05T06:50:16.537Z,14.67
2022-10-05T06:52:59.188Z,14.41
2022-10-05T06:55:38.895Z,14.73
2022-10-05T06:58:22.069Z,14.82
2022-10-05T07:00:55.267Z,14.60
2022-10-05T07:03:34.526Z,14.54
2022-10-05T07:06:11.757Z,14.46
2022-10-05T07:08:54.948Z,13.98
2022-10-05T07:11:38.286Z,13.88
2022-10-05T07:14:29.188Z,13.96
2022-10-05T07:17:09.989Z,14.26
2022-10-05T07:19:44.704Z,14.90
2022-10-05T07:22:37.437Z,15.03
2022-10-05T07:25:14.003Z,15.57
2022-10-05T07:27:51.799Z,15.67
2022-10-05T07:30:20.436Z,15.57
2022-10-05T07:33:00.317Z,15.56
2022-10-05T07:35:58.530Z,15.51
2022-10-05T07:38:33.033Z,15.77
2022-10-05T07:41:07.522Z,15.92
2022-10-05T07:44:02.804Z,16.31
2022-10-05T07:46:42.591Z,16.17
2022-10-05T07:49:18.944Z,16.50
2022-10-05T07:51:50.169Z,16.53
2022-10-05T07:54:24.555Z,16.97
2022-10-05T07:56:59.786Z,17.11
2022-10-05T07:59:33.665Z,17.08
2022-10-05T08:02:13.336Z,17.45
2022-10-05T08:04:51.827Z,17.87
2022-10-05T08:07:20.283Z,18.12
2022-10-05T08:09:55.324Z,18.21
2022-10-05T08:12:40.596Z,18.19
2022-10-05T08:15:15.644Z,18.45
2022-10-05T08:17:51.597Z,18.38
2022-10-05T08:20:41.316Z,18.88
2022-10-05T08:23:25.191Z,18.97
2022-10-05T08:26:07.266Z,19.06
2022-10-05T08:28:39.142Z,19.02
2022-10-05T08:31:17.863Z,19.32
2022-10-05T08:33:55.898Z,19.05
2022-10-05T08:36:53.723Z,18.87
2022-10-05T08:39:24.848Z,19.10
2022-10-05T08:42:43.141Z,19.56
2022-10-05T08:45:40.657Z,19.52
2022-10-05T08:48:26.732Z,19.17
2022-10-05T08:51:29.096Z,19.08
2022-10-05T08:54:23.895Z,19.07
2022-10-05T08:57:02.031Z,19.76
2022-10-05T08:59:54.555Z,19.90
2022-10-05T09:02:33.003Z,19.54
2022-10-05T09:05:22.880Z,19.31
2022-10-05T09:08:20.902Z,19.80
2022-10-05T09:11:06.989Z,20.21
2022-10-05T09:13:53.900Z,20.08
2022-10-05T09:16:45.684Z,20.42
2022-10-05T09:20:10.390Z,20.05
2022-10-05T09:23:02.773Z,20.10
2022-10-05T09:25:43.380Z,19.87
2022-10-05T09:28:26.580Z,20.74
2022-10-05T09:31:17.509Z,20.87
2022-10-05T09:34:16.859Z,20.96
2022-10-05T09:37:20.134Z,20.76
2022-10-05T09:40:40.571Z,20.68
2022-10-05T09:43:59.169Z,21.00
2022-10-05T09:46:45.287Z,20.78
2022-10-05T09:49:30.872Z,20.89
2022-10-05T09:52:20.656Z,21.10
2022-10-05T09:55:31.079Z,20.46
2022-10-05T09:58:20.384Z,19.89
2022-10-05T10:01:09.620Z,20.55
2022-10-05T10:04:15.483Z,21.02
2022-10-05T10:07:31.472Z,20.71
2022-10-05T10:10:22.776Z,20.70
2022-10-05T10:13:12.751Z,20.80
2022-10-05T10:16:16.571Z,21.04
2022-10-05T10:19:01.537Z,21.35
2022-10-05T10:21:55.927Z,22.06
2022-10-05T10:24:43.677Z,21.69
2022-10-05T10:27:30.152Z,21.37
2022-10-05T10:30:36.273Z,21.52
2022-10-05T10:33:34.076Z,21.09
2022-10-05T10:36:07.911Z,21.19
2022-10-05T10:38:54.849Z,20.97
2022-10-05T10:41:47.287Z,21.04
2022-10-05T10:45:00.882Z,21.49
2022-10-05T10:48:02.041Z,21.45
2022-10-05T10:50:59.417Z,21.70
2022-10-05T10:54:06.153Z,21.03
2022-10-05T10:56:57.056Z,21.20
2022-10-05T11:00:01.603Z,21.81
2022-10-05T11:03:00.390Z,21.85
2022-10-05T11:05:48.846Z,21.91
2022-10-05T11:08:46.500Z,21.68
2022-10-05T11:11:27.165Z,21.32
2022-10-05T11:14:22.622Z,21.23
2022-10-05T11:17:23.162Z,21.56
2022-10-05T11:20:18.619Z,21.61
2022-10-05T11:22:59.901Z,20.98
2022-10-05T11:25:50.072Z,21.22
2022-10-05T11:28:39.095Z,21.51
2022-10-05T11:31:45.213Z,20.96
2022-10-05T11:34:49.969Z,21.16
2022-10-05T11:37:36.253Z,21.76
2022-10-05T11:40:33.259Z,22.20
2022-10-05T11:43:35.172Z,22.40
2022-10-05T11:46:09.364Z,22.49
2022-10-05T11:48:53.352Z,22.01
2022-10-05T11:51:39.076Z,21.90
2022-10-05T11:54:27.193Z,21.45
2022-10-05T11:57:01.949Z,21.84
2022-10-05T11:59:39.458Z,21.84
2022-10-05T12:02:43.945Z,22.06
2022-10-05T12:05:21.201Z,22.57
2022-10-05T12:08:03.881Z,22.70
2022-10-05T12:10:37.813Z,22.97
2022-10-05T12:13:22.109Z,22.99
2022-10-05T12:15:55.562Z,23.09
2022-10-05T12:18:42.079Z,22.67
2022-10-05T12:21:17.413Z,22.53
2022-10-05T12:23:51.527Z,22.43
2022-10-05T12:26:25.812Z,22.39
2022-10-05T12:28:59.188Z,22.37
2022-10-05T12:31:38.313Z,22.61
2022-10-05T12:34:18.645Z,22.83
2022-10-05T12:37:04.156Z,22.79
2022-10-05T12:39:44.654Z,22.90
2022-10-05T12:42:26.440Z,22.70
2022-10-05T12:45:16.746Z,22.40
2022-10-05T12:48:01.604Z,21.48
2022-10-05T12:50:33.901Z,21.76
2022-10-05T12:53:15.399Z,22.46
2022-10-05T12:55:50.285Z,22.23
2022-10-05T12:58:28.158Z,22.24
2022-10-05T13:01:17.955Z,21.69
2022-10-05T13:03:53.743Z,21.09
2022-10-05T13:06:32.266Z,20.34
2022-10-05T13:09:10.175Z,20.01
2022-10-05T13:11:45.916Z,20.16
2022-10-05T13:14:35.383Z,20.31
2022-10-05T13:17:14.985Z,20.00
2022-10-05T13:19:47.274Z,19.50
2022-10-05T13:22:28.515Z,19.19
2022-10-05T13:25:09.426Z,19.42
2022-10-05T13:27:41.947Z,19.71
2022-10-05T13:30:15.113Z,19.72
2022-10-05T13:32:48.055Z,19.59
2022-10-05T13:35:36.285Z,19.19
2022-10-05T13:38:17.108Z,19.23
2022-10-05T13:40:49.756Z,18.48
2022-10-05T13:43:26.181Z,19.02
2022-10-05T13:45:57.130Z,19.04
2022-10-05T13:48:47.503Z,19.14
2022-10-05T13:51:23.132Z,19.03
2022-10-05T13:53:57.391Z,18.87
2022-10-05T13:56:31.042Z,19.05
2022-10-05T13:59:11.931Z,19.02
2022-10-05T14:01:43.143Z,18.83
2022-10-05T14:04:19.107Z,18.81
2022-10-05T14:06:47.702Z,18.30
2022-10-05T14:09:29.805Z,18.65
2022-10-05T14:12:15.644Z,18.67
2022-10-05T14:14:49.228Z,18.57
2022-10-05T14:17:32.820Z,18.77
2022-10-05T14:20:04.176Z,18.65
2022-10-05T14:22:42.725Z,18.77
2022-10-05T14:25:17.163Z,18.80
2022-10-05T14:27:52.163Z,18.85
2022-10-05T14:30:23.664Z,18.82
2022-10-05T14:32:56.123Z,18.73
2022-10-05T14:35:29.294Z,18.79
2022-10-05T14:38:00.213Z,18.72
2022-10-05T14:40:33.742Z,18.45
2022-10-05T14:43:18.161Z,18.34
2022-10-05T14:45:55.312Z,18.19
2022-10-05T14:48:23.465Z,18.23
2022-10-05T14:50:58.028Z,18.37
2022-10-05T14:53:26.862Z,18.09
2022-10-05T14:56:29.533Z,17.96
2022-10-05T14:59:30.756Z,17.76
2022-10-05T15:02:15.747Z,17.79
2022-10-05T15:04:50.053Z,17.86
2022-10-05T15:07:26.303Z,17.86
2022-10-05T15:10:29.529Z,17.87
2022-10-05T15:13:10.625Z,17.73
2022-10-05T15:15:45.829Z,17.64
2022-10-05T15:18:21.642Z,17.64
2022-10-05T15:20:58.565Z,17.58
2022-10-05T15:23:35.854Z,17.44
2022-10-05T15:26:21.648Z,17.37
2022-10-05T15:28:57.162Z,17.25
2022-10-05T15:31:35.999Z,17.22
2022-10-05T15:34:10.310Z,17.19
2022-10-05T15:36:44.381Z,17.13
2022-10-05T15:39:27.016Z,17.07
2022-10-05T15:42:00.783Z,16.91
2022-10-05T15:44:38.521Z,16.78
2022-10-05T15:47:08.772Z,16.67
2022-10-05T15:49:45.564Z,16.54
2022-10-05T15:52:23.931Z,16.48
2022-10-05T15:55:25.860Z,16.35
2022-10-05T15:58:08.443Z,15.95
2022-10-05T16:00:42.583Z,16.16
2022-10-05T16:03:19.275Z,16.10
2022-10-05T16:06:07.635Z,15.98
2022-10-05T16:08:51.496Z,15.80
2022-10-05T16:11:31.204Z,15.75
2022-10-05T16:14:09.892Z,15.65
2022-10-05T16:16:46.522Z,15.62
2022-10-05T16:19:21.599Z,15.49
2022-10-05T16:22:02.090Z,15.34
2022-10-05T16:24:51.638Z,15.30
2022-10-05T16:27:28.935Z,15.17
2022-10-05T16:30:02.807Z,15.13
2022-10-05T16:32:38.378Z,14.97
2022-10-05T16:35:17.512Z,14.91
2022-10-05T16:37:56.213Z,14.80
2022-10-05T16:40:29.929Z,14.69
2022-10-05T16:43:10.760Z,14.57
2022-10-05T16:46:00.026Z,14.68
2022-10-05T16:48:30.703Z,14.62
2022-10-05T16:51:17.896Z,14.60
2022-10-05T16:53:51.081Z,14.61
2022-10-05T16:56:25.143Z,14.62
2022-10-05T16:59:08.171Z,14.61
2022-10-05T17:01:48.489Z,14.29
2022-10-05T17:04:25.956Z,14.18
2022-10-05T17:07:17.887Z,14.52
2022-10-05T17:10:03.173Z,14.51
2022-10-05T17:12:51.140Z,14.44
2022-10-05T17:15:33.732Z,14.50
2022-10-05T17:18:23.536Z,14.43
2022-10-05T17:20:59.104Z,14.46
2022-10-05T17:23:33.195Z,14.37
2022-10-05T17:26:12.819Z,14.33
2022-10-05T17:28:45.408Z,14.32
2022-10-05T17:31:18.522Z,14.29
2022-10-05T17:34:11.458Z,14.36
2022-10-05T17:36:45.115Z,14.31
2022-10-05T17:39:17.080Z,13.12
2022-10-05T17:41:45.515Z,14.07
2022-10-05T17:44:26.229Z,13.92
2022-10-05T17:46:57.614Z,13.94
2022-10-05T17:50:08.900Z,13.89
2022-10-05T17:52:56.801Z,13.92
2022-10-05T17:55:44.093Z,13.90
2022-10-05T17:59:00.801Z,13.91
2022-10-05T18:01:30.614Z,13.76
2022-10-05T18:04:42.405Z,13.60
2022-10-05T18:07:20.795Z,13.64
2022-10-05T18:09:56.285Z,13.57
2022-10-05T18:12:40.806Z,13.51
2022-10-05T18:15:45.200Z,13.48
2022-10-05T18:18:38.659Z,12.34
2022-10-05T18:21:18.445Z,13.33
2022-10-05T18:24:01.274Z,13.09
2022-10-05T18:26:38.754Z,13.07
2022-10-05T18:29:43.850Z,12.99
2022-10-05T18:32:24.838Z,12.93
2022-10-05T18:35:02.310Z,12.93
2022-10-05T18:37:43.624Z,13.02
2022-10-05T18:40:31.161Z,12.97
2022-10-05T18:43:07.523Z,12.96
2022-10-05T18:45:42.897Z,12.93
2022-10-05T18:48:25.200Z,12.86
2022-10-05T18:50:58.701Z,13.01
2022-10-05T18:53:40.446Z,12.95
2022-10-05T18:56:20.733Z,12.86
2022-10-05T18:59:00.337Z,12.80
2022-10-05T19:01:52.248Z,12.70
2022-10-05T19:04:31.666Z,12.51
2022-10-05T19:07:12.956Z,12.42
2022-10-05T19:09:56.407Z,12.00
2022-10-05T19:12:38.092Z,12.20
2022-10-05T19:15:20.387Z,12.15
2022-10-05T19:18:11.667Z,12.06
2022-10-05T19:20:46.099Z,12.06
2022-10-05T19:23:27.752Z,12.06
2022-10-05T19:26:03.788Z,12.04
2022-10-05T19:28:38.146Z,11.86
2022-10-05T19:31:24.259Z,11.78
2022-10-05T19:34:07.832Z,12.03
2022-10-05T19:36:52.201Z,11.91
2022-10-05T19:39:29.727Z,11.91
2022-10-05T19:42:08.288Z,12.01
2022-10-05T19:44:49.102Z,11.90
2022-10-05T19:47:25.045Z,11.73
2022-10-05T19:50:00.429Z,11.62
2022-10-05T19:52:39.568Z,11.64
2022-10-05T19:55:14.854Z,11.68
2022-10-05T19:57:49.752Z,11.71
2022-10-05T20:00:24.652Z,11.72
2022-10-05T20:02:53.313Z,11.65
2022-10-05T20:05:21.401Z,11.60
2022-10-05T20:07:50.626Z,11.57
2022-10-05T20:10:29.532Z,11.53
2022-10-05T20:12:59.055Z,11.48
2022-10-05T20:15:46.219Z,11.48
2022-10-05T20:18:54.213Z,11.48
2022-10-05T20:21:43.584Z,11.49
2022-10-05T20:24:15.573Z,11.35
2022-10-05T20:27:04.325Z,10.43
2022-10-05T20:29:36.558Z,11.44
2022-10-05T20:32:08.299Z,11.32
2022-10-05T20:34:37.444Z,11.36
2022-10-05T20:37:05.372Z,11.32
2022-10-05T20:39:34.612Z,11.19
2022-10-05T20:42:02.436Z,11.10
2022-10-05T20:44:30.443Z,11.11
2022-10-05T20:46:58.675Z,11.09
2022-10-05T20:49:27.131Z,11.09
2022-10-05T20:51:56.620Z,11.03
2022-10-05T20:54:25.334Z,10.94
2022-10-05T20:56:55.676Z,11.01
2022-10-05T20:59:24.444Z,11.08
2022-10-05T21:01:52.876Z,11.10
2022-10-05T21:04:23.508Z,10.92
2022-10-05T21:06:51.802Z,10.84
2022-10-05T21:09:21.412Z,10.81
2022-10-05T21:11:52.877Z,10.83
2022-10-05T21:14:22.916Z,10.80
2022-10-05T21:16:50.942Z,10.80
2022-10-05T21:19:18.883Z,10.79
2022-10-05T21:21:47.459Z,10.38
2022-10-05T21:24:17.334Z,10.69
2022-10-05T21:26:45.782Z,9.66
2022-10-05T21:29:13.907Z,10.65
2022-10-05T21:31:43.159Z,10.61
2022-10-05T21:34:11.024Z,10.60
2022-10-05T21:36:38.853Z,10.63
2022-10-05T21:39:06.675Z,10.65
2022-10-05T21:41:34.551Z,10.64
2022-10-05T21:44:02.424Z,10.69
2022-10-05T21:46:31.601Z,10.66
2022-10-05T21:49:00.767Z,10.59
2022-10-05T21:51:28.755Z,10.54
2022-10-05T21:54:01.723Z,10.45
2022-10-05T21:56:32.226Z,10.31
2022-10-05T21:59:02.003Z,10.25
2022-10-05T22:01:29.840Z,10.19
2022-10-05T22:03:57.996Z,10.19
2022-10-05T22:06:27.184Z,10.17
2022-10-05T22:08:55.075Z,10.14
2022-10-05T22:11:23.103Z,10.16
2022-10-05T22:13:53.485Z,10.09
2022-10-05T22:16:24.666Z,10.04
2022-10-05T22:18:53.643Z,9.98
2022-10-05T22:21:22.148Z,9.90
2022-10-05T22:23:51.367Z,9.87
2022-10-05T22:26:22.062Z,9.83
2022-10-05T22:28:52.470Z,9.75
2022-10-05T22:31:20.517Z,9.73
2022-10-05T22:33:48.367Z,9.74
2022-10-05T22:36:17.065Z,9.73
2022-10-05T22:38:46.608Z,9.67
2022-10-05T22:41:18.262Z,9.60
2022-10-05T22:43:48.761Z,9.57
2022-10-05T22:46:17.143Z,9.58
2022-10-05T22:48:45.032Z,9.55
2022-10-05T22:51:13.131Z,9.49
2022-10-05T22:53:40.951Z,9.47
2022-10-05T22:56:10.612Z,9.44
2022-10-05T22:58:40.652Z,9.28
2022-10-05T23:01:10.197Z,9.27
2022-10-05T23:03:38.153Z,9.29
2022-10-05T23:06:08.298Z,9.16
2022-10-05T23:08:37.691Z,9.08
2022-10-05T23:11:06.922Z,8.97
2022-10-05T23:13:35.004Z,8.89
2022-10-05T23:16:08.968Z,8.95
2022-10-05T23:18:36.845Z,8.94
2022-10-05T23:21:07.363Z,8.87
2022-10-05T23:23:37.042Z,8.79
2022-10-05T23:26:05.944Z,8.61
2022-10-05T23:28:34.323Z,8.68
2022-10-05T23:31:04.132Z,8.68
2022-10-05T23:33:33.743Z,8.67
2022-10-05T23:36:02.641Z,8.68
2022-10-05T23:38:31.003Z,8.66
2022-10-05T23:40:59.845Z,8.59
2022-10-05T23:43:28.509Z,8.38
2022-10-05T23:45:56.824Z,8.59
2022-10-05T23:48:25.159Z,8.56
2022-10-05T23:50:55.719Z,8.67
2022-10-05T23:53:23.814Z,9.02
2022-10-05T23:55:52.336Z,8.76
2022-10-05T23:58:20.941Z,8.91
